Time;durP1;ratioP1;P1;durP2;ratioP2;P2;SDS_P1;SDS_P2;PMS_P1;PMS_P2;Temp;Humidity;BMP_temperature;BMP_pressure;BME280_temperature;BME280_humidity;BME280_pressure;Samples;Min_cycle;Max_cycle;Signal;HPM_P1;HPM_P2
2023/07/20 00:00:33;;;;;;;9.13;3.25;;;;;;;;;;5006158;28;20108;-66
2023/07/20 00:03:16;;;;;;;7.88;3.20;;;;;;;;;;4999996;28;20526;-67
2023/07/20 00:05:41;;;;;;;5.03;2.90;;;;;;;;;;5003993;28;20113;-66
2023/07/20 00:08:06;;;;;;;5.63;3.20;;;;;;;;;;5008200;28;20179;-66
2023/07/20 00:10:31;;;;;;;5.65;3.25;;;;;;;;;;5003474;28;20023;-67
2023/07/20 00:12:57;;;;;;;5.40;3.42;;;;;;;;;;5011831;28;20022;-66
2023/07/20 00:15:22;;;;;;;4.57;2.75;;;;;;;;;;5000217;28;20027;-66
2023/07/20 00:17:47;;;;;;;4.95;2.75;;;;;;;;;;4998996;28;20029;-66
2023/07/20 00:20:12;;;;;;;9.60;3.72;;;;;;;;;;5002459;28;20371;-66
2023/07/20 00:22:37;;;;;;;7.47;3.50;;;;;;;;;;4999692;28;20474;-66
2023/07/20 00:25:03;;;;;;;7.78;3.60;;;;;;;;;;5000538;28;20022;-66
2023/07/20 00:27:28;;;;;;;7.05;3.90;;;;;;;;;;5007370;28;20128;-66
2023/07/20 00:29:53;;;;;;;7.15;4.13;;;;;;;;;;5000156;28;20034;-66
2023/07/20 00:32:19;;;;;;;6.38;3.55;;;;;;;;;;5006904;28;20029;-66
2023/07/20 00:34:44;;;;;;;6.22;3.83;;;;;;;;;;5002191;28;20469;-66
2023/07/20 00:37:09;;;;;;;6.82;3.40;;;;;;;;;;5007699;28;20022;-66
2023/07/20 00:39:34;;;;;;;5.28;3.40;;;;;;;;;;4998114;28;20026;-66
2023/07/20 00:42:00;;;;;;;6.05;3.53;;;;;;;;;;5000039;28;20120;-66
2023/07/20 00:44:25;;;;;;;6.15;3.65;;;;;;;;;;5003835;28;20089;-66
2023/07/20 00:46:51;;;;;;;7.72;4.40;;;;;;;;;;5001354;28;20033;-66
2023/07/20 00:49:16;;;;;;;7.00;3.92;;;;;;;;;;5000143;28;20037;-66
2023/07/20 00:51:41;;;;;;;6.30;3.92;;;;;;;;;;4999150;28;20085;-66
2023/07/20 00:54:07;;;;;;;6.68;3.55;;;;;;;;;;5001942;28;20038;-66
2023/07/20 00:56:32;;;;;;;6.28;4.15;;;;;;;;;;4996240;28;20045;-66
2023/07/20 00:58:57;;;;;;;6.20;3.75;;;;;;;;;;4999608;28;20018;-66
2023/07/20 01:04:00;;;;;;;5.38;3.38;;;;;;;;;;5086011;22;20445;-66
2023/07/20 01:06:32;;;;;;;6.32;3.47;;;;;;;;;;5090358;28;20241;-66
2023/07/20 01:09:00;;;;;;;7.30;3.67;;;;;;;;;;5090556;28;20721;-66
2023/07/20 01:11:33;;;;;;;5.97;3.55;;;;;;;;;;5092238;28;20468;-66
2023/07/20 01:13:59;;;;;;;4.75;3.15;;;;;;;;;;5091827;28;20074;-66
2023/07/20 01:16:24;;;;;;;5.72;3.50;;;;;;;;;;5090045;28;20024;-66
2023/07/20 01:18:49;;;;;;;4.60;3.10;;;;;;;;;;5091308;28;20055;-66
2023/07/20 01:21:18;;;;;;;5.45;3.63;;;;;;;;;;5088548;28;20524;-65
2023/07/20 01:23:58;;;;;;;6.45;3.45;;;;;;;;;;5091709;28;20028;-66
2023/07/20 01:26:26;;;;;;;5.85;3.50;;;;;;;;;;5088607;28;20024;-66
2023/07/20 01:29:06;;;;;;;5.95;3.58;;;;;;;;;;5089754;28;20030;-66
2023/07/20 01:31:33;;;;;;;6.53;3.33;;;;;;;;;;5090050;28;20376;-66
2023/07/20 01:34:00;;;;;;;5.57;3.47;;;;;;;;;;5091655;28;20425;-66
2023/07/20 01:36:28;;;;;;;10.10;3.38;;;;;;;;;;5089238;28;20498;-66
2023/07/20 01:38:54;;;;;;;6.95;3.75;;;;;;;;;;5092187;28;20023;-66
2023/07/20 01:41:20;;;;;;;7.90;4.10;;;;;;;;;;5092628;28;20364;-65
2023/07/20 01:43:45;;;;;;;6.10;4.03;;;;;;;;;;5085331;28;20020;-66
2023/07/20 01:46:10;;;;;;;8.15;4.90;;;;;;;;;;5090511;28;20020;-66
2023/07/20 01:48:36;;;;;;;8.50;4.90;;;;;;;;;;5090292;28;20028;-66
2023/07/20 01:51:01;;;;;;;8.98;5.40;;;;;;;;;;5087264;28;20027;-66
2023/07/20 01:53:26;;;;;;;9.70;5.60;;;;;;;;;;5089462;28;20492;-65
2023/07/20 01:55:55;;;;;;;8.88;5.45;;;;;;;;;;5091806;28;20016;-66
2023/07/20 01:58:20;;;;;;;11.30;6.43;;;;;;;;;;5091292;28;20077;-66
2023/07/20 02:00:45;;;;;;;9.48;5.55;;;;;;;;;;5087465;28;20719;-66
2023/07/20 02:03:11;;;;;;;10.63;5.78;;;;;;;;;;5074245;28;20044;-66
2023/07/20 02:05:37;;;;;;;8.65;6.00;;;;;;;;;;5056001;28;20029;-66
2023/07/20 02:08:02;;;;;;;9.73;5.85;;;;;;;;;;5051263;28;20091;-66
2023/07/20 02:10:27;;;;;;;10.68;5.65;;;;;;;;;;5052138;28;20377;-66
2023/07/20 02:12:53;;;;;;;10.02;6.18;;;;;;;;;;5057255;28;20070;-66
2023/07/20 02:15:19;;;;;;;9.07;5.78;;;;;;;;;;5051774;28;20087;-66
2023/07/20 02:17:44;;;;;;;10.45;5.75;;;;;;;;;;5049766;28;20029;-66
2023/07/20 02:20:10;;;;;;;11.52;6.40;;;;;;;;;;5051850;28;20063;-66
2023/07/20 02:22:35;;;;;;;11.18;6.45;;;;;;;;;;5048813;28;20013;-66
2023/07/20 02:25:00;;;;;;;11.15;6.25;;;;;;;;;;5048186;28;20025;-66
2023/07/20 02:27:26;;;;;;;11.30;7.05;;;;;;;;;;5048397;28;20314;-65
2023/07/20 02:29:51;;;;;;;10.57;7.00;;;;;;;;;;5055665;28;20151;-65
2023/07/20 02:32:16;;;;;;;10.77;6.63;;;;;;;;;;5051907;28;20063;-66
2023/07/20 02:34:42;;;;;;;12.23;6.90;;;;;;;;;;5048921;28;20028;-66
2023/07/20 02:37:07;;;;;;;11.68;7.00;;;;;;;;;;5052497;28;20024;-65
2023/07/20 02:39:32;;;;;;;13.07;7.60;;;;;;;;;;5047082;28;20513;-65
2023/07/20 02:41:57;;;;;;;11.07;7.40;;;;;;;;;;5061643;28;20013;-65
2023/07/20 02:44:23;;;;;;;11.02;7.10;;;;;;;;;;5055243;28;20107;-66
2023/07/20 02:46:49;;;;;;;12.10;7.22;;;;;;;;;;5052422;28;20037;-70
2023/07/20 02:49:15;;;;;;;11.68;7.25;;;;;;;;;;5050976;28;20025;-70
2023/07/20 02:51:40;;;;;;;12.05;7.75;;;;;;;;;;5052966;28;20039;-70
2023/07/20 02:54:05;;;;;;;13.20;7.65;;;;;;;;;;5054348;28;20027;-70
2023/07/20 02:56:30;;;;;;;15.35;7.65;;;;;;;;;;5051849;28;20029;-66
2023/07/20 02:58:57;;;;;;;10.18;6.68;;;;;;;;;;5058694;28;20148;-65
2023/07/20 03:01:22;;;;;;;12.15;7.20;;;;;;;;;;5049124;28;20020;-65
2023/07/20 03:03:48;;;;;;;11.88;7.32;;;;;;;;;;5053942;28;20063;-66
2023/07/20 03:06:16;;;;;;;14.32;7.28;;;;;;;;;;5048620;28;20025;-65
2023/07/20 03:08:47;;;;;;;11.60;7.13;;;;;;;;;;5048193;28;20056;-65
2023/07/20 03:11:12;;;;;;;11.38;6.78;;;;;;;;;;5049289;28;20380;-66
2023/07/20 03:13:37;;;;;;;12.25;6.57;;;;;;;;;;5065500;28;20028;-65
2023/07/20 03:16:02;;;;;;;10.88;6.65;;;;;;;;;;5052955;28;20415;-66
2023/07/20 03:18:28;;;;;;;9.95;6.13;;;;;;;;;;5053848;28;20039;-66
2023/07/20 03:20:53;;;;;;;10.80;6.25;;;;;;;;;;5052563;28;20481;-65
2023/07/20 03:23:18;;;;;;;10.07;6.22;;;;;;;;;;5062020;28;20056;-66
2023/07/20 03:25:43;;;;;;;12.68;6.50;;;;;;;;;;5059773;28;20077;-66
2023/07/20 03:28:09;;;;;;;11.50;6.80;;;;;;;;;;5069699;28;20029;-66
2023/07/20 03:30:34;;;;;;;17.55;6.80;;;;;;;;;;5053403;28;20033;-66
2023/07/20 03:32:59;;;;;;;12.15;7.18;;;;;;;;;;5059119;28;20025;-65
2023/07/20 03:35:25;;;;;;;10.77;6.65;;;;;;;;;;5053917;28;20140;-66
2023/07/20 03:37:50;;;;;;;11.85;6.80;;;;;;;;;;5053594;28;20025;-65
2023/07/20 03:40:16;;;;;;;10.45;6.78;;;;;;;;;;5053044;28;20020;-65
2023/07/20 03:42:41;;;;;;;10.68;6.60;;;;;;;;;;5057436;28;20044;-65
2023/07/20 03:45:07;;;;;;;10.50;6.80;;;;;;;;;;5062226;28;20060;-66
2023/07/20 03:47:32;;;;;;;11.43;6.78;;;;;;;;;;5053334;28;20031;-66
2023/07/20 03:49:58;;;;;;;12.90;6.57;;;;;;;;;;5053697;28;20061;-66
2023/07/20 03:52:23;;;;;;;9.80;5.70;;;;;;;;;;5053325;28;20023;-65
2023/07/20 03:54:48;;;;;;;11.45;6.40;;;;;;;;;;5066697;28;20044;-65
2023/07/20 03:57:14;;;;;;;10.00;5.75;;;;;;;;;;5053780;28;20091;-66
2023/07/20 03:59:39;;;;;;;10.18;6.03;;;;;;;;;;5059485;28;20074;-66
2023/07/20 04:02:05;;;;;;;10.77;5.90;;;;;;;;;;5059608;28;20103;-66
2023/07/20 04:04:31;;;;;;;9.10;5.70;;;;;;;;;;5093194;28;20024;-66
2023/07/20 04:06:56;;;;;;;8.85;5.88;;;;;;;;;;5091710;28;20490;-66
2023/07/20 04:09:21;;;;;;;7.63;4.82;;;;;;;;;;5093272;28;20028;-66
2023/07/20 04:11:46;;;;;;;9.90;5.45;;;;;;;;;;5091411;28;20036;-66
2023/07/20 04:14:12;;;;;;;9.63;5.65;;;;;;;;;;5093460;28;20070;-66
2023/07/20 04:16:37;;;;;;;8.35;5.05;;;;;;;;;;5090931;28;20507;-66
2023/07/20 04:19:02;;;;;;;8.15;4.90;;;;;;;;;;5091947;28;20349;-66
2023/07/20 04:21:27;;;;;;;7.95;4.75;;;;;;;;;;5086325;28;20036;-66
2023/07/20 04:23:53;;;;;;;8.38;5.03;;;;;;;;;;5093098;28;20036;-66
2023/07/20 04:26:18;;;;;;;7.30;4.28;;;;;;;;;;5090450;28;20071;-66
2023/07/20 04:28:43;;;;;;;6.30;4.18;;;;;;;;;;5091939;28;20044;-66
2023/07/20 04:31:15;;;;;;;6.93;4.63;;;;;;;;;;5090875;28;20027;-66
2023/07/20 04:33:41;;;;;;;8.15;4.10;;;;;;;;;;5087044;28;20060;-66
2023/07/20 04:36:07;;;;;;;6.43;4.20;;;;;;;;;;5088511;28;20612;-66
2023/07/20 04:38:32;;;;;;;12.30;4.78;;;;;;;;;;5092593;28;20016;-66
2023/07/20 04:40:57;;;;;;;7.22;4.82;;;;;;;;;;5089382;28;20020;-66
2023/07/20 04:43:22;;;;;;;7.47;4.35;;;;;;;;;;5090186;28;20035;-66
2023/07/20 04:45:48;;;;;;;8.20;4.00;;;;;;;;;;5093294;28;20024;-66
2023/07/20 04:48:15;;;;;;;9.65;3.95;;;;;;;;;;5091863;28;20095;-66
2023/07/20 04:50:41;;;;;;;8.07;4.70;;;;;;;;;;5091398;28;20466;-66
2023/07/20 04:53:06;;;;;;;9.13;5.00;;;;;;;;;;5089534;28;20023;-66
2023/07/20 04:55:33;;;;;;;8.27;4.70;;;;;;;;;;5092056;28;20059;-66
2023/07/20 04:58:00;;;;;;;9.25;5.55;;;;;;;;;;5092011;28;20922;-66
2023/07/20 05:00:25;;;;;;;12.35;6.70;;;;;;;;;;5091159;28;20459;-66
2023/07/20 05:02:50;;;;;;;7.88;4.82;;;;;;;;;;5088853;28;20051;-66
2023/07/20 05:05:15;;;;;;;5.80;4.20;;;;;;;;;;5091702;28;20525;-65
2023/07/20 05:07:40;;;;;;;9.00;3.47;;;;;;;;;;5090293;28;20494;-65
2023/07/20 05:10:07;;;;;;;5.97;3.03;;;;;;;;;;5092083;28;20032;-66
2023/07/20 05:12:32;;;;;;;4.68;2.80;;;;;;;;;;5091398;28;20046;-66
2023/07/20 05:14:57;;;;;;;4.72;2.60;;;;;;;;;;5091047;28;20437;-66
2023/07/20 05:17:22;;;;;;;4.38;2.60;;;;;;;;;;5090259;28;20495;-66
2023/07/20 05:19:48;;;;;;;5.28;2.47;;;;;;;;;;5091261;28;20023;-66
2023/07/20 05:22:13;;;;;;;6.00;2.53;;;;;;;;;;5092388;28;20102;-66
2023/07/20 05:24:39;;;;;;;5.95;3.10;;;;;;;;;;5083370;28;20162;-66
2023/07/20 05:27:04;;;;;;;3.70;2.30;;;;;;;;;;5090337;28;20015;-66
2023/07/20 05:29:29;;;;;;;4.28;2.50;;;;;;;;;;5087484;28;20035;-66
2023/07/20 05:31:54;;;;;;;5.18;3.10;;;;;;;;;;5089338;28;20549;-67
2023/07/20 05:34:20;;;;;;;3.70;2.28;;;;;;;;;;5091865;28;20387;-67
2023/07/20 05:36:46;;;;;;;3.90;2.30;;;;;;;;;;5091828;28;20357;-66
2023/07/20 05:39:11;;;;;;;5.07;2.20;;;;;;;;;;5089539;28;20042;-66
2023/07/20 05:41:36;;;;;;;5.05;2.28;;;;;;;;;;5088956;28;20032;-67
2023/07/20 05:44:01;;;;;;;4.40;2.30;;;;;;;;;;5090635;28;20028;-66
2023/07/20 05:46:27;;;;;;;3.45;2.08;;;;;;;;;;5091222;28;21574;-67
2023/07/20 05:48:52;;;;;;;4.47;2.30;;;;;;;;;;5089996;28;20039;-67
2023/07/20 05:51:17;;;;;;;4.10;2.13;;;;;;;;;;5097724;28;20020;-66
2023/07/20 05:53:42;;;;;;;3.70;2.15;;;;;;;;;;5086173;28;20024;-66
2023/07/20 05:56:10;;;;;;;5.00;2.28;;;;;;;;;;5093546;28;20062;-67
2023/07/20 05:58:36;;;;;;;4.35;1.90;;;;;;;;;;5091220;28;20353;-66
2023/07/20 06:01:05;;;;;;;4.00;1.60;;;;;;;;;;5083248;28;20487;-67
2023/07/20 06:03:30;;;;;;;3.88;2.10;;;;;;;;;;5090520;28;20032;-67
2023/07/20 06:05:59;;;;;;;5.72;2.03;;;;;;;;;;5070152;28;20140;-67
2023/07/20 06:08:25;;;;;;;4.43;1.80;;;;;;;;;;5087279;28;20023;-66
2023/07/20 06:10:51;;;;;;;4.32;1.70;;;;;;;;;;5089819;28;20034;-67
2023/07/20 06:13:17;;;;;;;4.32;1.60;;;;;;;;;;5092351;28;20028;-67
2023/07/20 06:15:43;;;;;;;2.78;1.60;;;;;;;;;;5090243;28;20039;-67
2023/07/20 06:18:08;;;;;;;3.38;1.58;;;;;;;;;;5086718;28;20103;-67
2023/07/20 06:20:33;;;;;;;3.85;1.40;;;;;;;;;;5098022;28;20016;-67
2023/07/20 06:22:58;;;;;;;4.40;1.65;;;;;;;;;;5088019;28;20029;-67
2023/07/20 06:25:24;;;;;;;2.80;1.38;;;;;;;;;;5090569;28;20020;-67
2023/07/20 06:27:51;;;;;;;3.05;1.30;;;;;;;;;;5088762;28;20464;-67
2023/07/20 06:30:16;;;;;;;4.35;1.23;;;;;;;;;;5087168;28;20109;-67
2023/07/20 06:32:41;;;;;;;4.05;1.08;;;;;;;;;;5091567;28;20479;-67
2023/07/20 06:35:08;;;;;;;3.65;1.02;;;;;;;;;;5085806;28;20021;-67
2023/07/20 06:37:33;;;;;;;4.22;1.00;;;;;;;;;;5083711;28;20101;-67
2023/07/20 06:39:58;;;;;;;2.35;0.85;;;;;;;;;;5086029;28;20071;-67
2023/07/20 06:42:23;;;;;;;3.50;0.82;;;;;;;;;;5084377;28;20016;-67
2023/07/20 06:44:49;;;;;;;3.90;0.77;;;;;;;;;;5086843;28;20020;-68
2023/07/20 06:47:14;;;;;;;1.38;0.68;;;;;;;;;;5092868;28;20461;-67
2023/07/20 06:49:40;;;;;;;2.00;0.60;;;;;;;;;;5090615;28;20016;-67
2023/07/20 06:52:05;;;;;;;2.60;0.70;;;;;;;;;;5095875;28;20043;-67
2023/07/20 06:54:30;;;;;;;2.55;0.70;;;;;;;;;;5094230;28;20016;-68
2023/07/20 06:56:56;;;;;;;1.15;0.50;;;;;;;;;;5095076;28;20148;-67
2023/07/20 06:59:21;;;;;;;2.63;0.50;;;;;;;;;;5096303;28;20012;-67
2023/07/20 07:01:46;;;;;;;2.33;0.60;;;;;;;;;;5093934;28;20020;-67
2023/07/20 07:04:11;;;;;;;1.35;0.60;;;;;;;;;;5090909;28;20063;-67
2023/07/20 07:06:37;;;;;;;1.38;0.57;;;;;;;;;;5096918;28;20103;-67
2023/07/20 07:09:03;;;;;;;3.22;0.50;;;;;;;;;;5093506;28;20388;-68
2023/07/20 07:11:28;;;;;;;1.83;0.50;;;;;;;;;;5096456;28;20112;-68
2023/07/20 07:13:54;;;;;;;1.80;0.50;;;;;;;;;;5086653;28;20024;-67
2023/07/20 07:16:19;;;;;;;2.15;0.38;;;;;;;;;;5090364;28;20023;-68
2023/07/20 07:18:47;;;;;;;2.67;0.70;;;;;;;;;;5095940;28;20016;-67
2023/07/20 07:21:12;;;;;;;2.55;0.50;;;;;;;;;;5098888;28;20016;-68
2023/07/20 07:23:38;;;;;;;1.92;0.50;;;;;;;;;;5092868;28;20024;-67
2023/07/20 07:26:03;;;;;;;2.47;0.73;;;;;;;;;;5094563;28;20027;-67
2023/07/20 07:28:29;;;;;;;1.25;0.55;;;;;;;;;;5095711;28;20137;-67
2023/07/20 07:30:54;;;;;;;1.92;0.60;;;;;;;;;;5094909;28;20093;-67
2023/07/20 07:33:20;;;;;;;2.70;0.60;;;;;;;;;;5091873;28;20101;-67
2023/07/20 07:35:45;;;;;;;3.25;0.70;;;;;;;;;;5094314;28;20467;-67
2023/07/20 07:38:10;;;;;;;1.98;0.50;;;;;;;;;;5093631;28;20476;-67
2023/07/20 07:40:35;;;;;;;2.17;0.77;;;;;;;;;;5095474;28;20020;-67
2023/07/20 07:43:01;;;;;;;2.85;0.95;;;;;;;;;;5093663;28;20016;-67
2023/07/20 07:45:26;;;;;;;1.50;0.50;;;;;;;;;;5091941;28;20244;-67
2023/07/20 07:47:51;;;;;;;0.88;0.40;;;;;;;;;;5093530;28;20101;-67
2023/07/20 07:50:16;;;;;;;1.27;0.43;;;;;;;;;;5095347;28;20024;-67
2023/07/20 07:52:42;;;;;;;1.63;0.50;;;;;;;;;;5094042;28;20081;-67
2023/07/20 07:55:07;;;;;;;2.70;0.60;;;;;;;;;;5092552;28;20502;-68
2023/07/20 07:57:32;;;;;;;1.73;0.52;;;;;;;;;;5094682;28;20020;-67
2023/07/20 07:59:57;;;;;;;3.92;0.55;;;;;;;;;;5095183;28;20348;-67
2023/07/20 08:02:23;;;;;;;5.25;0.90;;;;;;;;;;5083677;28;20392;-67
2023/07/20 08:04:48;;;;;;;2.97;0.60;;;;;;;;;;5089890;28;20028;-67
2023/07/20 08:07:13;;;;;;;1.77;0.60;;;;;;;;;;5095264;28;20032;-67
2023/07/20 08:09:39;;;;;;;3.38;0.60;;;;;;;;;;5088828;28;20173;-67
2023/07/20 08:12:04;;;;;;;1.67;0.47;;;;;;;;;;5093469;28;20134;-67
2023/07/20 08:14:29;;;;;;;1.15;0.47;;;;;;;;;;5094379;28;20103;-68
2023/07/20 08:16:55;;;;;;;1.25;0.35;;;;;;;;;;5092379;28;20472;-67
2023/07/20 08:19:20;;;;;;;3.60;0.50;;;;;;;;;;5086825;28;20525;-67
2023/07/20 08:21:45;;;;;;;1.35;0.40;;;;;;;;;;5096400;28;20012;-68
2023/07/20 08:24:10;;;;;;;0.90;0.35;;;;;;;;;;5093955;28;20047;-68
2023/07/20 08:26:35;;;;;;;1.00;0.40;;;;;;;;;;5095281;28;20353;-68
2023/07/20 08:29:01;;;;;;;1.38;0.50;;;;;;;;;;5091507;28;20047;-67
2023/07/20 08:31:28;;;;;;;1.35;0.50;;;;;;;;;;5093144;28;20059;-68
2023/07/20 08:33:53;;;;;;;2.13;0.50;;;;;;;;;;5093831;28;20026;-68
2023/07/20 08:36:18;;;;;;;1.15;0.43;;;;;;;;;;5093269;28;20016;-67
2023/07/20 08:38:43;;;;;;;1.38;0.50;;;;;;;;;;5092240;28;20024;-67
2023/07/20 08:41:09;;;;;;;1.45;0.40;;;;;;;;;;5092748;28;20017;-67
2023/07/20 08:43:35;;;;;;;1.13;0.47;;;;;;;;;;5094206;28;20030;-66
2023/07/20 08:46:02;;;;;;;2.13;0.85;;;;;;;;;;5087471;28;20102;-67
2023/07/20 08:48:27;;;;;;;1.50;0.68;;;;;;;;;;5092004;28;20028;-67
2023/07/20 08:50:57;;;;;;;2.40;0.90;;;;;;;;;;5094701;28;20328;-68
2023/07/20 08:53:22;;;;;;;3.63;1.00;;;;;;;;;;5092847;28;20024;-68
2023/07/20 08:55:49;;;;;;;3.30;0.85;;;;;;;;;;5087370;28;20020;-67
2023/07/20 08:58:15;;;;;;;1.65;0.60;;;;;;;;;;5085006;28;20147;-68
2023/07/20 09:00:41;;;;;;;1.33;0.50;;;;;;;;;;5084679;28;20096;-68
2023/07/20 09:03:06;;;;;;;1.25;0.32;;;;;;;;;;5081448;28;20047;-67
2023/07/20 09:05:31;;;;;;;2.10;0.45;;;;;;;;;;5091442;28;20023;-67
2023/07/20 09:07:57;;;;;;;1.23;0.38;;;;;;;;;;5092944;28;20047;-68
2023/07/20 09:10:23;;;;;;;2.08;0.40;;;;;;;;;;5087039;28;20024;-68
2023/07/20 09:12:48;;;;;;;1.58;0.35;;;;;;;;;;5091885;28;20472;-67
2023/07/20 09:15:14;;;;;;;2.28;0.55;;;;;;;;;;5092229;28;20027;-68
2023/07/20 09:17:39;;;;;;;0.52;0.28;;;;;;;;;;5088863;28;20418;-68
2023/07/20 09:20:10;;;;;;;0.75;0.30;;;;;;;;;;5087156;28;20023;-67
2023/07/20 09:22:36;;;;;;;2.67;0.75;;;;;;;;;;5090111;28;20024;-67
2023/07/20 09:25:01;;;;;;;1.80;0.50;;;;;;;;;;5089933;28;20027;-68
2023/07/20 09:27:37;;;;;;;3.20;0.63;;;;;;;;;;5068970;28;20031;-67
2023/07/20 09:30:02;;;;;;;0.60;0.30;;;;;;;;;;5084621;28;20770;-67
2023/07/20 09:32:27;;;;;;;2.20;0.43;;;;;;;;;;5089119;28;20024;-68
2023/07/20 09:34:54;;;;;;;2.20;0.47;;;;;;;;;;5093243;28;20036;-67
2023/07/20 09:37:21;;;;;;;1.25;0.50;;;;;;;;;;5091040;28;20024;-67
2023/07/20 09:39:46;;;;;;;1.38;0.50;;;;;;;;;;5091756;28;20024;-67
2023/07/20 09:42:12;;;;;;;1.65;0.50;;;;;;;;;;5068667;28;20545;-67
2023/07/20 09:44:38;;;;;;;2.00;0.38;;;;;;;;;;5081707;28;20532;-67
2023/07/20 09:47:03;;;;;;;0.98;0.40;;;;;;;;;;5089264;28;20020;-68
2023/07/20 09:49:29;;;;;;;0.98;0.40;;;;;;;;;;5090551;28;20055;-68
2023/07/20 09:51:54;;;;;;;1.05;0.30;;;;;;;;;;5075546;28;20062;-68
2023/07/20 09:54:21;;;;;;;1.60;0.50;;;;;;;;;;5087599;28;20032;-69
2023/07/20 09:56:48;;;;;;;1.70;0.40;;;;;;;;;;5090019;28;20048;-67
2023/07/20 09:59:13;;;;;;;1.45;0.45;;;;;;;;;;5090522;28;20024;-68
2023/07/20 10:01:41;;;;;;;0.82;0.45;;;;;;;;;;5069931;28;20020;-68
2023/07/20 10:04:08;;;;;;;0.77;0.40;;;;;;;;;;5092425;28;20496;-68
2023/07/20 10:06:34;;;;;;;1.15;0.30;;;;;;;;;;5091900;28;20020;-68
2023/07/20 10:09:00;;;;;;;0.82;0.32;;;;;;;;;;5090517;28;20062;-68
2023/07/20 10:11:29;;;;;;;0.90;0.43;;;;;;;;;;5087008;28;20038;-68
2023/07/20 10:13:58;;;;;;;2.45;0.70;;;;;;;;;;5089847;28;20510;-67
2023/07/20 10:16:32;;;;;;;3.72;0.40;;;;;;;;;;5087772;28;20024;-67
2023/07/20 10:19:01;;;;;;;0.75;0.32;;;;;;;;;;5091802;28;20024;-67
2023/07/20 10:21:28;;;;;;;1.00;0.40;;;;;;;;;;5082120;28;20020;-67
2023/07/20 10:23:55;;;;;;;0.68;0.45;;;;;;;;;;5089231;28;20020;-67
2023/07/20 10:26:20;;;;;;;2.17;0.52;;;;;;;;;;5087351;28;20459;-67
2023/07/20 10:28:46;;;;;;;1.52;0.50;;;;;;;;;;5092441;28;20027;-67
2023/07/20 10:31:12;;;;;;;1.13;0.50;;;;;;;;;;5092491;28;20032;-67
2023/07/20 10:33:37;;;;;;;1.75;0.70;;;;;;;;;;5089196;28;20077;-67
2023/07/20 10:36:05;;;;;;;1.75;0.70;;;;;;;;;;5087282;28;20055;-67
2023/07/20 10:38:40;;;;;;;2.70;0.98;;;;;;;;;;5092189;28;20026;-67
2023/07/20 10:41:15;;;;;;;1.40;0.80;;;;;;;;;;5088537;28;20580;-67
2023/07/20 10:43:42;;;;;;;4.80;1.05;;;;;;;;;;5089898;28;20072;-66
2023/07/20 10:46:10;;;;;;;4.88;0.85;;;;;;;;;;5089676;28;20460;-66
2023/07/20 10:48:55;;;;;;;2.17;1.00;;;;;;;;;;5090356;28;20051;-66
2023/07/20 10:51:21;;;;;;;3.08;1.15;;;;;;;;;;5072511;28;20031;-66
2023/07/20 10:53:48;;;;;;;2.95;1.10;;;;;;;;;;5084591;28;20023;-66
2023/07/20 10:56:14;;;;;;;3.53;1.20;;;;;;;;;;5091050;28;20028;-66
2023/07/20 10:58:41;;;;;;;5.22;1.30;;;;;;;;;;5090661;28;20024;-66
2023/07/20 11:01:06;;;;;;;2.50;1.20;;;;;;;;;;5088343;28;20099;-66
2023/07/20 11:03:36;;;;;;;3.40;1.30;;;;;;;;;;5091191;28;20075;-66
2023/07/20 11:06:20;;;;;;;3.40;1.30;;;;;;;;;;5092521;28;20069;-66
2023/07/20 11:08:45;;;;;;;3.58;1.02;;;;;;;;;;5090362;28;20035;-66
2023/07/20 11:11:24;;;;;;;4.13;1.38;;;;;;;;;;5089538;28;20024;-66
2023/07/20 11:14:02;;;;;;;4.15;1.40;;;;;;;;;;5091769;28;20121;-67
2023/07/20 11:16:33;;;;;;;3.45;1.05;;;;;;;;;;5082624;28;20069;-67
2023/07/20 11:18:59;;;;;;;;;;;;;;;;;;5091826;28;20085;-67
2023/07/20 11:21:24;;;;;;;3.10;0.93;;;;;;;;;;5091788;28;19958;-67
2023/07/20 11:23:50;;;;;;;2.08;0.90;;;;;;;;;;5091854;28;20471;-67
2023/07/20 11:26:15;;;;;;;3.17;0.80;;;;;;;;;;5090664;28;20024;-67
2023/07/20 11:28:40;;;;;;;2.58;0.85;;;;;;;;;;5091224;28;20020;-66
2023/07/20 11:31:06;;;;;;;4.80;1.08;;;;;;;;;;5087331;28;20020;-66
2023/07/20 11:33:31;;;;;;;3.28;1.10;;;;;;;;;;5092087;28;20016;-66
2023/07/20 11:35:57;;;;;;;2.40;0.90;;;;;;;;;;5091616;28;20035;-66
2023/07/20 11:38:23;;;;;;;3.30;1.25;;;;;;;;;;5095611;28;20073;-66
2023/07/20 11:40:49;;;;;;;2.58;1.00;;;;;;;;;;5092631;28;20353;-66
2023/07/20 11:43:14;;;;;;;3.03;1.00;;;;;;;;;;5096011;28;20016;-66
2023/07/20 11:45:40;;;;;;;4.72;1.17;;;;;;;;;;5076597;28;20135;-66
2023/07/20 11:48:05;;;;;;;3.40;1.00;;;;;;;;;;5093901;28;20035;-67
2023/07/20 11:50:31;;;;;;;3.80;1.10;;;;;;;;;;5091978;28;20023;-68
2023/07/20 11:52:56;;;;;;;2.15;0.88;;;;;;;;;;5094622;28;20502;-67
2023/07/20 11:55:22;;;;;;;2.40;1.05;;;;;;;;;;5088829;28;20480;-67
2023/07/20 11:58:02;;;;;;;2.67;1.00;;;;;;;;;;5087159;28;20487;-67
2023/07/20 12:00:27;;;;;;;4.18;1.20;;;;;;;;;;5081684;28;20024;-67
2023/07/20 12:02:53;;;;;;;2.25;0.88;;;;;;;;;;5092917;28;20249;-67
2023/07/20 12:05:18;;;;;;;2.03;0.90;;;;;;;;;;5088717;28;20441;-67
2023/07/20 12:07:44;;;;;;;3.75;0.90;;;;;;;;;;5094715;28;20098;-67
2023/07/20 12:10:10;;;;;;;2.92;1.00;;;;;;;;;;5090475;28;20468;-67
2023/07/20 12:12:40;;;;;;;2.22;0.95;;;;;;;;;;5094773;28;20031;-68
2023/07/20 12:15:16;;;;;;;2.30;0.90;;;;;;;;;;5093621;28;20028;-68
2023/07/20 12:17:44;;;;;;;2.08;0.70;;;;;;;;;;5095680;28;20027;-68
2023/07/20 12:20:10;;;;;;;2.03;0.80;;;;;;;;;;5094228;28;20521;-68
2023/07/20 12:22:40;;;;;;;2.70;0.70;;;;;;;;;;5091074;28;20020;-67
2023/07/20 12:25:06;;;;;;;2.38;0.80;;;;;;;;;;5093051;28;20031;-67
2023/07/20 12:27:31;;;;;;;3.35;0.90;;;;;;;;;;5086306;28;20024;-67
2023/07/20 12:29:57;;;;;;;2.38;0.88;;;;;;;;;;5095453;28;20027;-67
2023/07/20 12:32:22;;;;;;;2.85;0.85;;;;;;;;;;5092183;28;20371;-67
2023/07/20 12:34:48;;;;;;;4.03;0.93;;;;;;;;;;5094429;28;20107;-66
2023/07/20 12:37:13;;;;;;;2.13;1.00;;;;;;;;;;5090407;28;20110;-66
2023/07/20 12:39:39;;;;;;;3.40;1.10;;;;;;;;;;5095196;28;20024;-67
2023/07/20 12:42:04;;;;;;;2.78;1.10;;;;;;;;;;5089903;28;20020;-67
2023/07/20 12:44:30;;;;;;;3.00;1.10;;;;;;;;;;5094437;28;20031;-67
2023/07/20 12:46:56;;;;;;;2.90;1.02;;;;;;;;;;5092155;28;20020;-67
2023/07/20 12:49:21;;;;;;;3.08;1.13;;;;;;;;;;5092663;28;20028;-66
2023/07/20 12:51:46;;;;;;;3.00;0.90;;;;;;;;;;5094706;28;20039;-67
2023/07/20 12:54:12;;;;;;;4.07;1.00;;;;;;;;;;5094621;28;20028;-67
2023/07/20 12:56:37;;;;;;;3.00;0.93;;;;;;;;;;5092886;28;20023;-68
2023/07/20 12:59:02;;;;;;;2.55;0.70;;;;;;;;;;5090570;28;20020;-67
2023/07/20 13:01:28;;;;;;;2.50;1.00;;;;;;;;;;5093608;28;20019;-68
2023/07/20 13:03:54;;;;;;;3.28;0.90;;;;;;;;;;5094504;28;20036;-67
2023/07/20 13:06:19;;;;;;;2.10;1.00;;;;;;;;;;5093747;28;20035;-68
2023/07/20 13:08:45;;;;;;;3.67;1.20;;;;;;;;;;5093822;28;20511;-67
2023/07/20 13:11:10;;;;;;;2.55;0.95;;;;;;;;;;5075779;28;20016;-67
2023/07/20 13:13:35;;;;;;;2.72;1.02;;;;;;;;;;5093462;28;20020;-67
2023/07/20 13:16:00;;;;;;;2.78;0.82;;;;;;;;;;5094242;28;20020;-67
2023/07/20 13:18:26;;;;;;;3.85;1.00;;;;;;;;;;5093619;28;20095;-67
2023/07/20 13:20:51;;;;;;;3.58;0.90;;;;;;;;;;5102277;28;20030;-67
2023/07/20 13:23:16;;;;;;;2.08;0.82;;;;;;;;;;5098103;28;20020;-66
2023/07/20 13:25:42;;;;;;;3.22;1.00;;;;;;;;;;5091663;28;20404;-66
2023/07/20 13:28:08;;;;;;;3.42;1.00;;;;;;;;;;5091080;28;20396;-67
2023/07/20 13:30:33;;;;;;;3.45;0.80;;;;;;;;;;5094038;28;20020;-66
2023/07/20 13:32:58;;;;;;;2.50;0.82;;;;;;;;;;5092700;28;20098;-67
2023/07/20 13:35:24;;;;;;;2.40;1.00;;;;;;;;;;5092246;28;20119;-67
2023/07/20 13:37:49;;;;;;;2.67;0.93;;;;;;;;;;5092903;28;20106;-67
2023/07/20 13:40:16;;;;;;;2.80;0.80;;;;;;;;;;5075273;28;20020;-67
2023/07/20 13:42:42;;;;;;;3.58;0.90;;;;;;;;;;5093164;28;20494;-67
2023/07/20 13:45:07;;;;;;;2.40;0.80;;;;;;;;;;5090777;28;20036;-68
2023/07/20 13:47:33;;;;;;;2.45;0.88;;;;;;;;;;5092209;28;20036;-67
2023/07/20 13:49:58;;;;;;;3.72;1.00;;;;;;;;;;5092947;28;20103;-67
2023/07/20 13:52:23;;;;;;;3.30;0.90;;;;;;;;;;5092206;28;20149;-67
2023/07/20 13:54:48;;;;;;;4.38;0.90;;;;;;;;;;5093685;28;20020;-67
2023/07/20 13:57:14;;;;;;;3.97;1.00;;;;;;;;;;5092972;28;20027;-67
2023/07/20 13:59:40;;;;;;;4.45;0.93;;;;;;;;;;5092197;28;20016;-67
2023/07/20 14:02:05;;;;;;;3.85;1.00;;;;;;;;;;5093001;28;20024;-67
2023/07/20 14:04:31;;;;;;;2.88;1.00;;;;;;;;;;5090968;28;20031;-67
2023/07/20 14:06:56;;;;;;;5.13;0.90;;;;;;;;;;5092967;28;20020;-67
2023/07/20 14:09:21;;;;;;;3.13;0.90;;;;;;;;;;5093480;28;20034;-66
2023/07/20 14:11:47;;;;;;;2.13;0.77;;;;;;;;;;5091854;28;20028;-66
2023/07/20 14:14:12;;;;;;;3.03;1.02;;;;;;;;;;5089988;28;20035;-67
2023/07/20 14:16:37;;;;;;;2.17;0.90;;;;;;;;;;5092342;28;20128;-67
2023/07/20 14:19:04;;;;;;;3.10;1.05;;;;;;;;;;5092224;28;20030;-68
2023/07/20 14:21:31;;;;;;;5.88;1.52;;;;;;;;;;5092864;28;20471;-67
2023/07/20 14:23:57;;;;;;;2.65;0.98;;;;;;;;;;5089005;28;20073;-67
2023/07/20 14:26:23;;;;;;;2.63;0.90;;;;;;;;;;5091303;28;20095;-67
2023/07/20 14:28:48;;;;;;;3.70;1.17;;;;;;;;;;5091210;28;20095;-67
2023/07/20 14:31:13;;;;;;;3.33;1.13;;;;;;;;;;5089228;28;20024;-67
2023/07/20 14:33:39;;;;;;;2.40;1.00;;;;;;;;;;5089106;28;20023;-67
2023/07/20 14:36:04;;;;;;;4.45;1.30;;;;;;;;;;5093155;28;20099;-67